createdAt,value
2019-03-20T00:03:08.099Z,0.59
2019-03-20T00:08:07.619Z,0.62
2019-03-20T00:13:07.481Z,0.38
2019-03-20T00:18:07.943Z,0.48
2019-03-20T00:23:07.482Z,0.36
2019-03-20T00:27:07.966Z,-0.01
2019-03-20T00:32:07.168Z,-0.49
2019-03-20T00:37:07.737Z,-0.52
2019-03-20T00:42:07.435Z,-0.21
2019-03-20T00:47:07.616Z,-0.4
2019-03-20T00:52:07.226Z,-0.39
2019-03-20T00:57:07.816Z,-0.3
2019-03-20T01:01:07.216Z,-0.16
2019-03-20T01:06:07.740Z,0.02
2019-03-20T01:11:07.717Z,0.06
2019-03-20T01:16:07.898Z,0.27
2019-03-20T01:21:07.475Z,0.39
2019-03-20T01:26:08.061Z,0.58
2019-03-20T01:31:07.317Z,1.08
2019-03-20T01:36:07.838Z,1.22
2019-03-20T01:40:07.646Z,1.21
2019-03-20T01:45:08.919Z,1.34
2019-03-20T01:50:07.317Z,1.25
2019-03-20T01:55:07.709Z,1.03
2019-03-20T02:00:09.727Z,0.81
2019-03-20T02:05:12.096Z,0.9
2019-03-20T02:10:08.392Z,1.03
2019-03-20T02:14:08.918Z,0.96
2019-03-20T02:19:07.859Z,0.86
2019-03-20T02:24:07.440Z,0.82
2019-03-20T02:29:07.932Z,0.86
2019-03-20T02:34:08.064Z,0.91
2019-03-20T02:39:07.967Z,0.89
2019-03-20T02:44:07.392Z,0.68
2019-03-20T02:48:07.736Z,0.43
2019-03-20T02:53:07.373Z,0.29
2019-03-20T02:58:07.899Z,0.21
2019-03-20T03:03:07.274Z,0.49
2019-03-20T03:08:07.927Z,0.06
2019-03-20T03:13:07.844Z,0.25
2019-03-20T03:18:07.268Z,0.02
2019-03-20T03:22:07.863Z,-0.34
2019-03-20T03:27:07.449Z,-0.6
2019-03-20T03:32:07.974Z,-0.93
2019-03-20T03:37:07.562Z,-1.25
2019-03-20T03:42:07.658Z,-1.47
2019-03-20T03:47:06.870Z,-1.48
2019-03-20T03:51:07.721Z,-1.05
2019-03-20T03:56:07.392Z,-0.97
2019-03-20T04:01:07.527Z,-1.08
2019-03-20T04:06:06.922Z,-1.05
2019-03-20T04:11:07.307Z,-1.18
2019-03-20T04:16:07.298Z,-1.32
2019-03-20T04:21:07.267Z,-1.3
2019-03-20T04:26:07.600Z,-1.73
2019-03-20T04:30:08.727Z,-1.92
2019-03-20T04:35:07.591Z,-1.9
2019-03-20T04:40:07.540Z,-1.69
2019-03-20T04:45:12.093Z,-1.69
2019-03-20T04:50:08.129Z,-1.45
2019-03-20T04:55:07.782Z,-1.67
2019-03-20T05:00:08.770Z,-1.71
2019-03-20T05:04:07.622Z,-1.68
2019-03-20T05:09:07.570Z,-1.78
2019-03-20T05:14:07.212Z,-1.93
2019-03-20T05:19:07.816Z,-2.16
2019-03-20T05:24:07.496Z,-1.77
2019-03-20T05:29:07.875Z,-1.4
2019-03-20T05:34:07.421Z,-1.45
2019-03-20T05:39:08.486Z,-1.56
2019-03-20T05:43:07.386Z,-1.3
2019-03-20T05:48:07.803Z,-0.4
2019-03-20T05:53:07.357Z,0.58
2019-03-20T05:58:07.902Z,1.34
2019-03-20T06:03:08.001Z,1.11
2019-03-20T06:08:07.884Z,1.87
2019-03-20T06:13:07.850Z,1.98
2019-03-20T06:17:07.718Z,1.28
2019-03-20T06:22:07.770Z,1.21
2019-03-20T06:27:07.330Z,2.44
2019-03-20T06:32:07.907Z,3.03
2019-03-20T06:37:07.477Z,3.47
2019-03-20T06:42:07.426Z,3.9
2019-03-20T06:47:07.722Z,3.13
2019-03-20T06:51:07.160Z,3.67
2019-03-20T06:56:07.671Z,4.51
2019-03-20T07:01:07.580Z,4.41
2019-03-20T07:06:08.160Z,4.59
2019-03-20T07:11:07.176Z,5.12
2019-03-20T07:16:07.440Z,4.58
2019-03-20T07:21:07.769Z,5.95
2019-03-20T07:25:07.554Z,5.45
2019-03-20T07:30:08.407Z,6.05
2019-03-20T07:35:07.703Z,5.66
2019-03-20T07:40:07.755Z,6.23
2019-03-20T07:45:08.847Z,6.01
2019-03-20T07:50:07.571Z,6.38
2019-03-20T07:54:08.190Z,7.07
2019-03-20T07:59:07.793Z,6.97
2019-03-20T08:04:07.410Z,6.58
2019-03-20T08:09:08.481Z,7.03
2019-03-20T08:14:08.097Z,7.16
2019-03-20T08:19:07.459Z,7.75
2019-03-20T08:24:08.020Z,7.85
2019-03-20T08:29:07.627Z,9.36
2019-03-20T08:33:07.860Z,9.98
2019-03-20T08:38:19.635Z,9.94
2019-03-20T08:43:07.835Z,10.09
2019-03-20T08:48:07.121Z,10.27
2019-03-20T08:53:07.686Z,10.73
2019-03-20T08:58:07.173Z,11.1
2019-03-20T09:03:07.187Z,11.3
2019-03-20T09:08:07.797Z,11.29
2019-03-20T09:12:07.820Z,11.28
2019-03-20T09:17:08.058Z,10.49
2019-03-20T09:22:07.644Z,10.5
2019-03-20T09:27:07.305Z,10.77
2019-03-20T09:32:07.680Z,10.84
2019-03-20T09:37:07.294Z,10.68
2019-03-20T09:41:07.243Z,11.11
2019-03-20T09:46:07.341Z,10.98
2019-03-20T09:51:08.003Z,11.62
2019-03-20T09:56:07.550Z,10.75
2019-03-20T10:01:07.424Z,11.04
2019-03-20T10:06:08.182Z,11.18
2019-03-20T10:11:07.282Z,10.96
2019-03-20T10:15:09.325Z,11.55
2019-03-20T10:20:08.154Z,11.31
2019-03-20T10:25:07.758Z,11.79
2019-03-20T10:30:08.478Z,11.61
2019-03-20T10:35:07.928Z,11.11
2019-03-20T10:40:07.921Z,11.25
2019-03-20T10:45:08.359Z,11.71
2019-03-20T10:50:07.249Z,11.89
2019-03-20T10:54:07.729Z,12.3
2019-03-20T10:59:07.368Z,11.67
2019-03-20T11:04:08.096Z,12.69
2019-03-20T11:09:19.504Z,12.19
2019-03-20T11:14:07.059Z,11.96
2019-03-20T11:19:07.473Z,13
2019-03-20T11:24:08.048Z,12.44
2019-03-20T11:28:07.531Z,12.82
2019-03-20T11:33:07.279Z,12.89
2019-03-20T11:38:07.897Z,12.5
2019-03-20T11:43:07.937Z,12.91
2019-03-20T11:48:07.598Z,12.23
2019-03-20T11:53:07.147Z,13.14
2019-03-20T11:58:07.753Z,13.02
2019-03-20T12:02:07.503Z,13.53
2019-03-20T12:07:08.004Z,12.34
2019-03-20T12:12:08.086Z,13.05
2019-03-20T12:17:07.650Z,12.51
2019-03-20T12:22:07.191Z,12.53
2019-03-20T12:27:14.864Z,12.38
2019-03-20T12:32:07.510Z,12.12
2019-03-20T12:36:07.982Z,12.93
2019-03-20T12:41:08.071Z,12.89
2019-03-20T12:46:07.461Z,11.87
2019-03-20T12:51:08.051Z,13.41
2019-03-20T12:56:07.638Z,13.44
2019-03-20T13:01:07.674Z,12.52
2019-03-20T13:06:07.227Z,12.22
2019-03-20T13:11:07.199Z,12.27
2019-03-20T13:15:08.946Z,12.61
2019-03-20T13:20:07.973Z,12.81
2019-03-20T13:25:07.503Z,12.82
2019-03-20T13:30:19.640Z,12.92
2019-03-20T13:35:07.727Z,13.26
2019-03-20T13:40:15.732Z,12.84
2019-03-20T13:44:07.198Z,13.4
2019-03-20T13:49:07.234Z,13.47
2019-03-20T13:54:08.091Z,13.58
2019-03-20T13:59:07.381Z,13.78
2019-03-20T14:04:07.484Z,13.99
2019-03-20T14:09:08.426Z,13.47
2019-03-20T14:14:08.161Z,13.19
2019-03-20T14:18:07.341Z,13.51
2019-03-20T14:23:08.208Z,13.5
2019-03-20T14:28:07.783Z,13.29
2019-03-20T14:33:08.020Z,13.35
2019-03-20T14:38:07.541Z,13.83
2019-03-20T14:43:07.957Z,13.44
2019-03-20T14:48:07.364Z,13.38
2019-03-20T14:53:07.950Z,13.18
2019-03-20T14:57:06.975Z,13.18
2019-03-20T15:02:07.779Z,13.33
2019-03-20T15:07:07.323Z,13.34
2019-03-20T15:12:07.378Z,12.93
2019-03-20T15:17:07.791Z,13.06
2019-03-20T15:22:06.973Z,13.1
2019-03-20T15:26:07.758Z,13.09
2019-03-20T15:31:07.259Z,13.33
2019-03-20T15:36:09.555Z,12.99
2019-03-20T15:41:07.050Z,13.1
2019-03-20T15:46:07.755Z,12.97
2019-03-20T15:51:07.065Z,12.52
2019-03-20T15:56:07.933Z,12.62
2019-03-20T16:00:09.292Z,12.75
2019-03-20T16:05:07.146Z,12.47
2019-03-20T16:10:06.859Z,12.37
2019-03-20T16:15:09.047Z,12.22
2019-03-20T16:20:06.991Z,11.78
2019-03-20T16:25:08.029Z,11.69
2019-03-20T16:30:09.336Z,11.3
2019-03-20T16:34:07.435Z,11.12
2019-03-20T16:39:08.203Z,10.8
2019-03-20T16:44:08.246Z,10.58
2019-03-20T16:49:06.766Z,10.07
2019-03-20T16:54:07.550Z,9.69
2019-03-20T17:04:07.155Z,9.2
2019-03-20T17:09:07.923Z,8.83
2019-03-20T17:14:07.900Z,8.83
2019-03-20T17:19:07.223Z,9.11
2019-03-20T17:24:07.169Z,9.32
2019-03-20T17:28:07.458Z,9.4
2019-03-20T17:33:08.112Z,9.38
2019-03-20T17:38:08.064Z,9.24
2019-03-20T17:43:07.230Z,9.14
2019-03-20T17:48:07.068Z,9.09
2019-03-20T17:53:07.990Z,9.03
2019-03-20T17:58:07.715Z,9.03
2019-03-20T18:02:07.226Z,9.08
2019-03-20T18:07:07.895Z,9.18
2019-03-20T18:12:07.711Z,9.18
2019-03-20T18:17:07.347Z,9.14
2019-03-20T18:22:07.681Z,9.16
2019-03-20T18:27:07.676Z,9.09
2019-03-20T18:32:08.136Z,8.97
2019-03-20T18:37:07.776Z,8.94
2019-03-20T18:41:07.372Z,9.02
2019-03-20T18:46:07.465Z,9.02
2019-03-20T18:51:08.617Z,8.93
2019-03-20T18:56:07.852Z,8.86
2019-03-20T19:01:09.882Z,8.82
2019-03-20T19:06:07.875Z,8.81
2019-03-20T19:11:08.340Z,8.76
2019-03-20T19:15:09.722Z,8.71
2019-03-20T19:20:07.676Z,8.66
2019-03-20T19:25:07.734Z,8.63
2019-03-20T19:30:08.567Z,8.61
2019-03-20T19:35:09.041Z,8.64
2019-03-20T19:40:07.192Z,8.59
2019-03-20T19:44:07.615Z,8.57
2019-03-20T19:49:08.121Z,8.5
2019-03-20T19:54:07.788Z,8.51
2019-03-20T19:59:07.455Z,8.52
2019-03-20T20:04:07.674Z,8.49
2019-03-20T20:09:07.978Z,8.49
2019-03-20T20:14:07.672Z,8.46
2019-03-20T20:18:08.667Z,8.5
2019-03-20T20:23:07.765Z,8.53
2019-03-20T20:28:07.658Z,8.59
2019-03-20T20:33:08.134Z,8.52
2019-03-20T20:38:07.749Z,8.42
2019-03-20T20:43:07.833Z,8.36
2019-03-20T20:48:08.076Z,8.44
2019-03-20T20:52:18.656Z,8.71
2019-03-20T20:57:07.365Z,8.71
2019-03-20T21:02:07.327Z,8.51
2019-03-20T21:07:07.915Z,8.38
2019-03-20T21:12:07.947Z,8.45
2019-03-20T21:17:07.585Z,8.36
2019-03-20T21:22:07.336Z,8.28
2019-03-20T21:26:07.533Z,8.17
2019-03-20T21:31:06.943Z,8.23
2019-03-20T21:36:07.605Z,8.39
2019-03-20T21:41:07.524Z,8.37
2019-03-20T21:46:08.083Z,8.26
2019-03-20T21:51:07.792Z,8.31
2019-03-20T21:56:07.410Z,8.28
2019-03-20T22:01:07.996Z,8.19
2019-03-20T22:05:07.582Z,8.15
2019-03-20T22:10:07.608Z,8.26
2019-03-20T22:15:08.760Z,8.19
2019-03-20T22:20:07.699Z,8.38
2019-03-20T22:25:07.428Z,8.47
2019-03-20T22:30:09.322Z,8.51
2019-03-20T22:35:07.538Z,8.55
2019-03-20T22:40:07.679Z,8.55
2019-03-20T22:44:06.912Z,8.22
2019-03-20T22:49:07.074Z,8.01
2019-03-20T22:54:07.746Z,7.91
2019-03-20T22:59:07.416Z,8
2019-03-20T23:04:07.730Z,8.02
2019-03-20T23:09:07.783Z,7.99
2019-03-20T23:14:07.008Z,7.89
2019-03-20T23:18:07.360Z,7.78
2019-03-20T23:23:08.058Z,7.85
2019-03-20T23:28:07.720Z,7.94
2019-03-20T23:33:07.161Z,7.96
2019-03-20T23:38:07.825Z,8.12
2019-03-20T23:43:07.906Z,8.07
2019-03-20T23:48:08.009Z,7.91
2019-03-20T23:52:07.478Z,7.82
2019-03-20T23:57:08.148Z,7.78
